Terminal Aerodrome Forecast
Issued by NWS Newport/Morehead City, NC

Home | Current Version | Previous Version | Graphics & Text | Print | Product List | Glossary On
Versions: 1 2 3 4 5 6 7 8 9 10 11 12 13 14
816
FTUS42 KMHX 172321
TAFEWN
TAF
KEWN 172321Z 1800/1824 17010KT P6SM VCSH SCT015 OVC025
     FM180400 18006KT P6SM OVC015
     FM181200 17010KT P6SM VCSH OVC035
     FM181900 16010G18KT P6SM VCTS OVC025CB=

USA.gov is the U.S. government's official web portal to all federal, state and local government web resources and services.